Occoquan, Virginia
Current Conditions -  °F | °C
As of 1:58 AM on Sunday 23 Nov 2014 (Local Time) from KDAA Reporting Station
Scattered Clouds Scattered Clouds  
Wind Chill: 39°   Ceiling: Unl
Heat Index: 42°   Visibility: 10mi
Dew Point: 20°   Wind: 5mph
Humidity: 42%   Direction: 140°SE
Pressure: 30.25"   Gusts: NA
Location:  38.68°N, 77.26°W
Report Text: KDAA 230658Z AUTO 14004KT 10SM SCT110 05/M07 A3025 RMK AO2 SLP247 T00541067
Loading
Personal Weather Stations






























Interactive Weather Map New forecast layout! Learn more

10-Day Weather Forecast

Advertisements
Track Severe Weather on mobile